sensor_id;sensor_type;location;lat;lon;timestamp;P1;durP1;ratioP1;P2;durP2;ratioP2
12956;SDS011;6543;48.836;10.092;2023-04-25T00:01:55;4.37;;;2.20;;
12956;SDS011;6543;48.836;10.092;2023-04-25T00:04:23;3.70;;;2.27;;
12956;SDS011;6543;48.836;10.092;2023-04-25T00:06:52;4.70;;;2.30;;
12956;SDS011;6543;48.836;10.092;2023-04-25T00:09:19;3.87;;;2.57;;
12956;SDS011;6543;48.836;10.092;2023-04-25T00:11:47;2.60;;;2.00;;
12956;SDS011;6543;48.836;10.092;2023-04-25T00:14:14;3.63;;;2.20;;
12956;SDS011;6543;48.836;10.092;2023-04-25T00:16:41;3.40;;;2.10;;
12956;SDS011;6543;48.836;10.092;2023-04-25T00:19:09;2.30;;;1.93;;
12956;SDS011;6543;48.836;10.092;2023-04-25T00:21:36;1.87;;;1.77;;
12956;SDS011;6543;48.836;10.092;2023-04-25T00:24:07;5.03;;;1.90;;
12956;SDS011;6543;48.836;10.092;2023-04-25T00:26:34;1.83;;;1.70;;
12956;SDS011;6543;48.836;10.092;2023-04-25T00:29:01;3.73;;;2.00;;
12956;SDS011;6543;48.836;10.092;2023-04-25T00:31:28;2.40;;;2.20;;
12956;SDS011;6543;48.836;10.092;2023-04-25T00:33:55;2.27;;;1.80;;
12956;SDS011;6543;48.836;10.092;2023-04-25T00:36:22;2.23;;;2.03;;
12956;SDS011;6543;48.836;10.092;2023-04-25T00:38:49;2.53;;;1.83;;
12956;SDS011;6543;48.836;10.092;2023-04-25T00:41:18;2.83;;;2.10;;
12956;SDS011;6543;48.836;10.092;2023-04-25T00:43:46;2.80;;;1.90;;
12956;SDS011;6543;48.836;10.092;2023-04-25T00:46:15;1.80;;;1.70;;
12956;SDS011;6543;48.836;10.092;2023-04-25T00:48:42;5.87;;;2.63;;
12956;SDS011;6543;48.836;10.092;2023-04-25T00:51:09;2.73;;;2.10;;
12956;SDS011;6543;48.836;10.092;2023-04-25T00:53:40;5.27;;;2.77;;
12956;SDS011;6543;48.836;10.092;2023-04-25T00:56:07;2.53;;;2.33;;
12956;SDS011;6543;48.836;10.092;2023-04-25T00:58:36;5.57;;;2.00;;
12956;SDS011;6543;48.836;10.092;2023-04-25T01:01:04;3.73;;;2.13;;
12956;SDS011;6543;48.836;10.092;2023-04-25T01:03:33;3.67;;;2.10;;
12956;SDS011;6543;48.836;10.092;2023-04-25T01:06:05;4.03;;;2.03;;
12956;SDS011;6543;48.836;10.092;2023-04-25T01:08:33;4.27;;;1.60;;
12956;SDS011;6543;48.836;10.092;2023-04-25T01:11:00;2.97;;;1.63;;
12956;SDS011;6543;48.836;10.092;2023-04-25T01:13:27;1.30;;;1.03;;
12956;SDS011;6543;48.836;10.092;2023-04-25T01:15:56;1.40;;;1.30;;
12956;SDS011;6543;48.836;10.092;2023-04-25T01:18:23;3.20;;;1.40;;
12956;SDS011;6543;48.836;10.092;2023-04-25T01:20:50;1.97;;;1.50;;
12956;SDS011;6543;48.836;10.092;2023-04-25T01:23:20;1.87;;;1.30;;
12956;SDS011;6543;48.836;10.092;2023-04-25T01:25:47;1.83;;;1.40;;
12956;SDS011;6543;48.836;10.092;2023-04-25T01:28:15;1.80;;;1.67;;
12956;SDS011;6543;48.836;10.092;2023-04-25T01:30:43;2.27;;;1.20;;
12956;SDS011;6543;48.836;10.092;2023-04-25T01:33:10;2.67;;;1.67;;
12956;SDS011;6543;48.836;10.092;2023-04-25T01:35:40;2.03;;;1.50;;
12956;SDS011;6543;48.836;10.092;2023-04-25T01:38:07;1.67;;;1.27;;
12956;SDS011;6543;48.836;10.092;2023-04-25T01:40:36;3.97;;;1.50;;
12956;SDS011;6543;48.836;10.092;2023-04-25T01:43:06;2.03;;;1.23;;
12956;SDS011;6543;48.836;10.092;2023-04-25T01:45:36;1.37;;;1.27;;
12956;SDS011;6543;48.836;10.092;2023-04-25T01:48:05;1.97;;;1.80;;
12956;SDS011;6543;48.836;10.092;2023-04-25T01:50:32;2.23;;;1.63;;
12956;SDS011;6543;48.836;10.092;2023-04-25T01:52:59;1.30;;;1.20;;
12956;SDS011;6543;48.836;10.092;2023-04-25T01:55:26;1.23;;;1.10;;
12956;SDS011;6543;48.836;10.092;2023-04-25T01:57:55;2.67;;;1.60;;
12956;SDS011;6543;48.836;10.092;2023-04-25T02:00:23;1.90;;;1.50;;
12956;SDS011;6543;48.836;10.092;2023-04-25T02:02:50;2.67;;;1.53;;
12956;SDS011;6543;48.836;10.092;2023-04-25T02:05:18;1.50;;;1.20;;
12956;SDS011;6543;48.836;10.092;2023-04-25T02:07:46;2.00;;;1.90;;
12956;SDS011;6543;48.836;10.092;2023-04-25T02:10:14;3.93;;;1.80;;
12956;SDS011;6543;48.836;10.092;2023-04-25T02:12:41;3.77;;;1.90;;
12956;SDS011;6543;48.836;10.092;2023-04-25T02:15:10;3.43;;;2.33;;
12956;SDS011;6543;48.836;10.092;2023-04-25T02:17:37;4.10;;;1.77;;
12956;SDS011;6543;48.836;10.092;2023-04-25T02:20:05;1.87;;;1.77;;
12956;SDS011;6543;48.836;10.092;2023-04-25T02:22:33;2.23;;;2.00;;
12956;SDS011;6543;48.836;10.092;2023-04-25T02:25:00;1.90;;;1.73;;
12956;SDS011;6543;48.836;10.092;2023-04-25T02:27:29;2.63;;;2.07;;
12956;SDS011;6543;48.836;10.092;2023-04-25T02:29:56;2.10;;;1.90;;
12956;SDS011;6543;48.836;10.092;2023-04-25T02:32:24;4.80;;;1.80;;
12956;SDS011;6543;48.836;10.092;2023-04-25T02:34:52;2.97;;;2.10;;
12956;SDS011;6543;48.836;10.092;2023-04-25T02:37:19;3.27;;;2.30;;
12956;SDS011;6543;48.836;10.092;2023-04-25T02:39:46;2.10;;;1.90;;
12956;SDS011;6543;48.836;10.092;2023-04-25T02:42:13;4.23;;;1.60;;
12956;SDS011;6543;48.836;10.092;2023-04-25T02:44:40;4.80;;;2.17;;
12956;SDS011;6543;48.836;10.092;2023-04-25T02:47:07;4.23;;;1.70;;
12956;SDS011;6543;48.836;10.092;2023-04-25T02:49:36;2.70;;;1.97;;
12956;SDS011;6543;48.836;10.092;2023-04-25T02:52:03;4.70;;;2.00;;
12956;SDS011;6543;48.836;10.092;2023-04-25T02:54:30;2.70;;;1.90;;
12956;SDS011;6543;48.836;10.092;2023-04-25T02:56:57;3.40;;;2.07;;
12956;SDS011;6543;48.836;10.092;2023-04-25T02:59:24;1.80;;;1.70;;
12956;SDS011;6543;48.836;10.092;2023-04-25T03:01:51;2.50;;;2.00;;
12956;SDS011;6543;48.836;10.092;2023-04-25T03:04:18;5.43;;;2.10;;
12956;SDS011;6543;48.836;10.092;2023-04-25T03:06:47;4.03;;;1.83;;
12956;SDS011;6543;48.836;10.092;2023-04-25T03:09:14;4.70;;;1.90;;
12956;SDS011;6543;48.836;10.092;2023-04-25T03:11:41;3.03;;;2.13;;
12956;SDS011;6543;48.836;10.092;2023-04-25T03:14:10;4.03;;;1.97;;
12956;SDS011;6543;48.836;10.092;2023-04-25T03:16:37;1.83;;;1.53;;
12956;SDS011;6543;48.836;10.092;2023-04-25T03:19:04;3.67;;;2.53;;
12956;SDS011;6543;48.836;10.092;2023-04-25T03:21:31;4.97;;;2.30;;
12956;SDS011;6543;48.836;10.092;2023-04-25T03:24:02;5.50;;;1.77;;
12956;SDS011;6543;48.836;10.092;2023-04-25T03:26:30;2.60;;;2.40;;
12956;SDS011;6543;48.836;10.092;2023-04-25T03:28:57;2.60;;;2.17;;
12956;SDS011;6543;48.836;10.092;2023-04-25T03:31:24;3.73;;;2.60;;
12956;SDS011;6543;48.836;10.092;2023-04-25T03:33:51;2.97;;;2.43;;
12956;SDS011;6543;48.836;10.092;2023-04-25T03:36:18;3.17;;;2.30;;
12956;SDS011;6543;48.836;10.092;2023-04-25T03:38:45;6.27;;;2.90;;
12956;SDS011;6543;48.836;10.092;2023-04-25T03:41:16;3.57;;;2.60;;
12956;SDS011;6543;48.836;10.092;2023-04-25T03:43:43;6.33;;;3.07;;
12956;SDS011;6543;48.836;10.092;2023-04-25T03:46:10;4.10;;;2.70;;
12956;SDS011;6543;48.836;10.092;2023-04-25T03:48:37;3.03;;;2.57;;
12956;SDS011;6543;48.836;10.092;2023-04-25T03:51:04;4.07;;;2.57;;
12956;SDS011;6543;48.836;10.092;2023-04-25T03:53:31;5.03;;;2.67;;
12956;SDS011;6543;48.836;10.092;2023-04-25T03:55:58;5.83;;;3.13;;
12956;SDS011;6543;48.836;10.092;2023-04-25T03:58:27;4.93;;;2.90;;
12956;SDS011;6543;48.836;10.092;2023-04-25T04:00:55;6.67;;;2.60;;
12956;SDS011;6543;48.836;10.092;2023-04-25T04:03:21;3.43;;;2.30;;
12956;SDS011;6543;48.836;10.092;2023-04-25T04:05:49;3.63;;;2.40;;
12956;SDS011;6543;48.836;10.092;2023-04-25T04:08:15;3.87;;;2.23;;
12956;SDS011;6543;48.836;10.092;2023-04-25T04:10:43;2.83;;;2.30;;
12956;SDS011;6543;48.836;10.092;2023-04-25T04:13:10;5.30;;;2.50;;
12956;SDS011;6543;48.836;10.092;2023-04-25T04:15:39;2.53;;;2.30;;
12956;SDS011;6543;48.836;10.092;2023-04-25T04:18:06;5.50;;;2.60;;
12956;SDS011;6543;48.836;10.092;2023-04-25T04:20:34;5.30;;;2.90;;
12956;SDS011;6543;48.836;10.092;2023-04-25T04:23:01;4.17;;;2.97;;
12956;SDS011;6543;48.836;10.092;2023-04-25T04:25:28;4.17;;;2.50;;
12956;SDS011;6543;48.836;10.092;2023-04-25T04:27:56;2.87;;;2.33;;
12956;SDS011;6543;48.836;10.092;2023-04-25T04:30:23;4.67;;;2.43;;
12956;SDS011;6543;48.836;10.092;2023-04-25T04:32:56;4.37;;;3.00;;
12956;SDS011;6543;48.836;10.092;2023-04-25T04:35:23;2.67;;;2.47;;
12956;SDS011;6543;48.836;10.092;2023-04-25T04:37:51;2.57;;;2.20;;
12956;SDS011;6543;48.836;10.092;2023-04-25T04:40:18;3.27;;;2.57;;
12956;SDS011;6543;48.836;10.092;2023-04-25T04:42:45;3.10;;;2.47;;
12956;SDS011;6543;48.836;10.092;2023-04-25T04:45:13;6.50;;;2.30;;
12956;SDS011;6543;48.836;10.092;2023-04-25T04:47:41;5.07;;;2.30;;
12956;SDS011;6543;48.836;10.092;2023-04-25T04:50:15;3.43;;;2.47;;
12956;SDS011;6543;48.836;10.092;2023-04-25T04:52:43;4.57;;;2.50;;
12956;SDS011;6543;48.836;10.092;2023-04-25T04:55:10;4.47;;;2.60;;
12956;SDS011;6543;48.836;10.092;2023-04-25T04:57:37;3.97;;;2.57;;
12956;SDS011;6543;48.836;10.092;2023-04-25T05:00:05;3.70;;;3.00;;
12956;SDS011;6543;48.836;10.092;2023-04-25T05:02:36;4.30;;;3.03;;
12956;SDS011;6543;48.836;10.092;2023-04-25T05:05:03;4.33;;;2.87;;
12956;SDS011;6543;48.836;10.092;2023-04-25T05:07:32;3.37;;;2.60;;
12956;SDS011;6543;48.836;10.092;2023-04-25T05:10:01;4.57;;;3.47;;
12956;SDS011;6543;48.836;10.092;2023-04-25T05:12:28;3.00;;;2.70;;
12956;SDS011;6543;48.836;10.092;2023-04-25T05:14:55;3.53;;;2.80;;
12956;SDS011;6543;48.836;10.092;2023-04-25T05:17:22;4.03;;;2.73;;
12956;SDS011;6543;48.836;10.092;2023-04-25T05:19:49;3.90;;;2.77;;
12956;SDS011;6543;48.836;10.092;2023-04-25T05:22:16;4.40;;;2.70;;
12956;SDS011;6543;48.836;10.092;2023-04-25T05:24:44;3.20;;;2.37;;
12956;SDS011;6543;48.836;10.092;2023-04-25T05:27:13;4.83;;;2.80;;
12956;SDS011;6543;48.836;10.092;2023-04-25T05:29:42;4.53;;;2.77;;
12956;SDS011;6543;48.836;10.092;2023-04-25T05:32:09;4.33;;;2.73;;
12956;SDS011;6543;48.836;10.092;2023-04-25T05:34:50;3.07;;;2.50;;
12956;SDS011;6543;48.836;10.092;2023-04-25T05:37:17;3.97;;;2.30;;
12956;SDS011;6543;48.836;10.092;2023-04-25T05:39:46;7.07;;;2.73;;
12956;SDS011;6543;48.836;10.092;2023-04-25T05:42:13;4.23;;;2.20;;
12956;SDS011;6543;48.836;10.092;2023-04-25T05:44:41;4.27;;;2.40;;
12956;SDS011;6543;48.836;10.092;2023-04-25T05:47:07;3.70;;;2.67;;
12956;SDS011;6543;48.836;10.092;2023-04-25T05:49:34;2.63;;;1.90;;
12956;SDS011;6543;48.836;10.092;2023-04-25T05:52:01;3.23;;;1.97;;
12956;SDS011;6543;48.836;10.092;2023-04-25T05:54:28;4.00;;;2.33;;
12956;SDS011;6543;48.836;10.092;2023-04-25T05:56:57;5.97;;;2.37;;
12956;SDS011;6543;48.836;10.092;2023-04-25T05:59:24;2.67;;;2.10;;
12956;SDS011;6543;48.836;10.092;2023-04-25T06:01:51;2.43;;;2.23;;
12956;SDS011;6543;48.836;10.092;2023-04-25T06:04:17;2.53;;;2.30;;
12956;SDS011;6543;48.836;10.092;2023-04-25T06:06:45;5.33;;;2.00;;
12956;SDS011;6543;48.836;10.092;2023-04-25T06:09:12;7.97;;;2.60;;
12956;SDS011;6543;48.836;10.092;2023-04-25T06:11:39;3.87;;;2.40;;
12956;SDS011;6543;48.836;10.092;2023-04-25T06:14:17;3.13;;;1.93;;
12956;SDS011;6543;48.836;10.092;2023-04-25T06:16:48;6.93;;;2.83;;
12956;SDS011;6543;48.836;10.092;2023-04-25T06:19:15;3.77;;;1.80;;
12956;SDS011;6543;48.836;10.092;2023-04-25T06:21:42;2.20;;;2.00;;
12956;SDS011;6543;48.836;10.092;2023-04-25T06:24:10;5.63;;;2.50;;
12956;SDS011;6543;48.836;10.092;2023-04-25T06:26:37;5.07;;;2.20;;
12956;SDS011;6543;48.836;10.092;2023-04-25T06:29:04;3.37;;;2.40;;
12956;SDS011;6543;48.836;10.092;2023-04-25T06:31:33;3.27;;;2.30;;
12956;SDS011;6543;48.836;10.092;2023-04-25T06:34:14;2.77;;;1.77;;
12956;SDS011;6543;48.836;10.092;2023-04-25T06:36:42;4.97;;;2.63;;
12956;SDS011;6543;48.836;10.092;2023-04-25T06:39:11;2.83;;;2.10;;
12956;SDS011;6543;48.836;10.092;2023-04-25T06:41:38;4.23;;;1.73;;
12956;SDS011;6543;48.836;10.092;2023-04-25T06:44:05;2.30;;;2.13;;
12956;SDS011;6543;48.836;10.092;2023-04-25T06:46:33;2.53;;;2.23;;
12956;SDS011;6543;48.836;10.092;2023-04-25T06:49:01;4.83;;;2.17;;
12956;SDS011;6543;48.836;10.092;2023-04-25T06:51:31;5.23;;;2.10;;
12956;SDS011;6543;48.836;10.092;2023-04-25T06:54:14;2.57;;;1.97;;
12956;SDS011;6543;48.836;10.092;2023-04-25T06:56:42;2.07;;;1.87;;
12956;SDS011;6543;48.836;10.092;2023-04-25T06:59:10;4.90;;;2.23;;
12956;SDS011;6543;48.836;10.092;2023-04-25T07:01:39;1.87;;;1.77;;
12956;SDS011;6543;48.836;10.092;2023-04-25T07:04:06;2.60;;;2.40;;
12956;SDS011;6543;48.836;10.092;2023-04-25T07:06:34;2.37;;;1.87;;
12956;SDS011;6543;48.836;10.092;2023-04-25T07:09:07;2.60;;;2.40;;
12956;SDS011;6543;48.836;10.092;2023-04-25T07:11:37;2.53;;;2.33;;
12956;SDS011;6543;48.836;10.092;2023-04-25T07:14:04;2.77;;;2.20;;
12956;SDS011;6543;48.836;10.092;2023-04-25T07:16:32;3.13;;;2.37;;
12956;SDS011;6543;48.836;10.092;2023-04-25T07:19:02;2.23;;;2.03;;
12956;SDS011;6543;48.836;10.092;2023-04-25T07:21:29;3.80;;;2.47;;
12956;SDS011;6543;48.836;10.092;2023-04-25T07:23:57;4.00;;;2.57;;
12956;SDS011;6543;48.836;10.092;2023-04-25T07:26:25;3.63;;;2.80;;
12956;SDS011;6543;48.836;10.092;2023-04-25T07:28:54;3.10;;;2.80;;
12956;SDS011;6543;48.836;10.092;2023-04-25T07:31:21;4.03;;;2.80;;
12956;SDS011;6543;48.836;10.092;2023-04-25T07:33:48;4.33;;;2.60;;
12956;SDS011;6543;48.836;10.092;2023-04-25T07:36:17;4.57;;;2.63;;
12956;SDS011;6543;48.836;10.092;2023-04-25T07:38:44;6.87;;;3.17;;
12956;SDS011;6543;48.836;10.092;2023-04-25T07:41:10;3.20;;;2.90;;
12956;SDS011;6543;48.836;10.092;2023-04-25T07:43:37;3.10;;;2.80;;
12956;SDS011;6543;48.836;10.092;2023-04-25T07:46:04;3.23;;;2.93;;
12956;SDS011;6543;48.836;10.092;2023-04-25T07:48:31;3.20;;;2.90;;
12956;SDS011;6543;48.836;10.092;2023-04-25T07:51:01;3.53;;;2.73;;
12956;SDS011;6543;48.836;10.092;2023-04-25T07:56:34;3.20;;;2.87;;
12956;SDS011;6543;48.836;10.092;2023-04-25T07:59:02;3.73;;;2.37;;
12956;SDS011;6543;48.836;10.092;2023-04-25T08:01:31;3.03;;;2.40;;
12956;SDS011;6543;48.836;10.092;2023-04-25T08:04:03;3.77;;;3.17;;
12956;SDS011;6543;48.836;10.092;2023-04-25T08:06:35;2.67;;;2.30;;
12956;SDS011;6543;48.836;10.092;2023-04-25T08:09:08;3.63;;;2.40;;
12956;SDS011;6543;48.836;10.092;2023-04-25T08:11:39;2.50;;;2.33;;
12956;SDS011;6543;48.836;10.092;2023-04-25T08:14:06;2.33;;;2.10;;
12956;SDS011;6543;48.836;10.092;2023-04-25T08:16:33;2.70;;;2.50;;
12956;SDS011;6543;48.836;10.092;2023-04-25T08:19:02;4.40;;;2.60;;
12956;SDS011;6543;48.836;10.092;2023-04-25T08:21:31;2.00;;;1.80;;
12956;SDS011;6543;48.836;10.092;2023-04-25T08:23:58;1.93;;;1.83;;
12956;SDS011;6543;48.836;10.092;2023-04-25T08:26:27;2.30;;;2.13;;
12956;SDS011;6543;48.836;10.092;2023-04-25T08:28:54;3.23;;;2.47;;
12956;SDS011;6543;48.836;10.092;2023-04-25T08:31:21;3.70;;;2.07;;
12956;SDS011;6543;48.836;10.092;2023-04-25T08:33:49;2.43;;;2.13;;
12956;SDS011;6543;48.836;10.092;2023-04-25T08:36:26;4.30;;;1.63;;
12956;SDS011;6543;48.836;10.092;2023-04-25T08:38:54;2.13;;;1.73;;
12956;SDS011;6543;48.836;10.092;2023-04-25T08:41:21;1.60;;;1.50;;
12956;SDS011;6543;48.836;10.092;2023-04-25T08:43:53;3.23;;;2.03;;
12956;SDS011;6543;48.836;10.092;2023-04-25T08:46:25;2.20;;;2.00;;
12956;SDS011;6543;48.836;10.092;2023-04-25T08:48:56;2.23;;;2.10;;
12956;SDS011;6543;48.836;10.092;2023-04-25T08:51:27;3.17;;;2.87;;
12956;SDS011;6543;48.836;10.092;2023-04-25T08:54:00;3.83;;;3.10;;
12956;SDS011;6543;48.836;10.092;2023-04-25T08:57:01;2.10;;;2.00;;
12956;SDS011;6543;48.836;10.092;2023-04-25T08:59:41;2.60;;;2.40;;
12956;SDS011;6543;48.836;10.092;2023-04-25T09:02:15;5.07;;;3.70;;
12956;SDS011;6543;48.836;10.092;2023-04-25T09:04:45;3.77;;;3.33;;
12956;SDS011;6543;48.836;10.092;2023-04-25T09:07:12;4.37;;;2.60;;
12956;SDS011;6543;48.836;10.092;2023-04-25T09:09:46;2.30;;;2.10;;
12956;SDS011;6543;48.836;10.092;2023-04-25T09:12:13;2.67;;;2.47;;
12956;SDS011;6543;48.836;10.092;2023-04-25T09:14:44;2.47;;;2.27;;
12956;SDS011;6543;48.836;10.092;2023-04-25T09:17:29;2.07;;;1.97;;
12956;SDS011;6543;48.836;10.092;2023-04-25T09:20:01;1.90;;;1.80;;
12956;SDS011;6543;48.836;10.092;2023-04-25T09:22:33;2.60;;;2.00;;
12956;SDS011;6543;48.836;10.092;2023-04-25T09:25:09;1.77;;;1.60;;
12956;SDS011;6543;48.836;10.092;2023-04-25T09:27:48;3.97;;;2.37;;
12956;SDS011;6543;48.836;10.092;2023-04-25T09:33:12;3.37;;;2.03;;
12956;SDS011;6543;48.836;10.092;2023-04-25T09:35:49;3.07;;;2.77;;
12956;SDS011;6543;48.836;10.092;2023-04-25T09:38:20;2.40;;;2.20;;
12956;SDS011;6543;48.836;10.092;2023-04-25T09:40:51;2.50;;;2.00;;
12956;SDS011;6543;48.836;10.092;2023-04-25T09:43:24;4.07;;;1.93;;
12956;SDS011;6543;48.836;10.092;2023-04-25T09:46:00;2.67;;;1.97;;
12956;SDS011;6543;48.836;10.092;2023-04-25T09:48:28;2.97;;;2.30;;
12956;SDS011;6543;48.836;10.092;2023-04-25T09:51:11;3.77;;;2.37;;
12956;SDS011;6543;48.836;10.092;2023-04-25T09:55:31;3.60;;;2.50;;
12956;SDS011;6543;48.836;10.092;2023-04-25T09:57:36;4.13;;;3.00;;
12956;SDS011;6543;48.836;10.092;2023-04-25T10:00:40;6.53;;;3.00;;
12956;SDS011;6543;48.836;10.092;2023-04-25T10:03:42;4.53;;;2.30;;
12956;SDS011;6543;48.836;10.092;2023-04-25T10:09:38;3.27;;;2.40;;
12956;SDS011;6543;48.836;10.092;2023-04-25T10:15:44;5.13;;;3.87;;
12956;SDS011;6543;48.836;10.092;2023-04-25T10:22:26;4.97;;;2.77;;
12956;SDS011;6543;48.836;10.092;2023-04-25T10:25:32;3.37;;;2.80;;
12956;SDS011;6543;48.836;10.092;2023-04-25T10:28:14;4.70;;;2.93;;
12956;SDS011;6543;48.836;10.092;2023-04-25T10:31:07;4.07;;;3.20;;
12956;SDS011;6543;48.836;10.092;2023-04-25T10:33:53;5.60;;;3.40;;
12956;SDS011;6543;48.836;10.092;2023-04-25T10:37:03;6.63;;;3.60;;
12956;SDS011;6543;48.836;10.092;2023-04-25T10:46:22;8.43;;;4.17;;
12956;SDS011;6543;48.836;10.092;2023-04-25T10:52:16;3.33;;;3.03;;
12956;SDS011;6543;48.836;10.092;2023-04-25T10:54:51;4.83;;;3.80;;
12956;SDS011;6543;48.836;10.092;2023-04-25T10:57:30;6.40;;;3.90;;
12956;SDS011;6543;48.836;10.092;2023-04-25T11:00:05;9.17;;;3.90;;
12956;SDS011;6543;48.836;10.092;2023-04-25T11:02:42;5.27;;;3.93;;
12956;SDS011;6543;48.836;10.092;2023-04-25T11:05:22;5.13;;;3.57;;
12956;SDS011;6543;48.836;10.092;2023-04-25T11:07:54;4.83;;;3.70;;
12956;SDS011;6543;48.836;10.092;2023-04-25T11:10:25;5.40;;;3.40;;
12956;SDS011;6543;48.836;10.092;2023-04-25T11:12:52;4.30;;;3.23;;
12956;SDS011;6543;48.836;10.092;2023-04-25T11:15:22;4.60;;;3.37;;
12956;SDS011;6543;48.836;10.092;2023-04-25T11:17:52;3.30;;;2.93;;
12956;SDS011;6543;48.836;10.092;2023-04-25T11:20:31;3.80;;;3.00;;
12956;SDS011;6543;48.836;10.092;2023-04-25T11:23:30;6.30;;;3.63;;
12956;SDS011;6543;48.836;10.092;2023-04-25T11:26:04;5.40;;;3.33;;
12956;SDS011;6543;48.836;10.092;2023-04-25T11:28:51;3.67;;;2.90;;
12956;SDS011;6543;48.836;10.092;2023-04-25T11:31:32;4.97;;;2.87;;
12956;SDS011;6543;48.836;10.092;2023-04-25T11:34:23;5.93;;;3.00;;
12956;SDS011;6543;48.836;10.092;2023-04-25T11:36:51;5.50;;;3.37;;
12956;SDS011;6543;48.836;10.092;2023-04-25T11:39:23;4.97;;;3.50;;
12956;SDS011;6543;48.836;10.092;2023-04-25T11:41:54;5.43;;;3.40;;
12956;SDS011;6543;48.836;10.092;2023-04-25T11:44:26;3.77;;;3.00;;
12956;SDS011;6543;48.836;10.092;2023-04-25T11:46:54;5.23;;;3.50;;
12956;SDS011;6543;48.836;10.092;2023-04-25T11:49:21;4.93;;;4.30;;
12956;SDS011;6543;48.836;10.092;2023-04-25T11:51:50;4.13;;;3.57;;
12956;SDS011;6543;48.836;10.092;2023-04-25T11:54:16;3.27;;;2.97;;
12956;SDS011;6543;48.836;10.092;2023-04-25T11:56:45;3.03;;;2.80;;
12956;SDS011;6543;48.836;10.092;2023-04-25T11:59:12;2.70;;;2.50;;
12956;SDS011;6543;48.836;10.092;2023-04-25T12:01:47;7.67;;;2.57;;
12956;SDS011;6543;48.836;10.092;2023-04-25T12:04:19;2.77;;;2.50;;
12956;SDS011;6543;48.836;10.092;2023-04-25T12:06:49;3.40;;;2.33;;
12956;SDS011;6543;48.836;10.092;2023-04-25T12:09:17;3.37;;;2.33;;
12956;SDS011;6543;48.836;10.092;2023-04-25T12:11:48;3.27;;;2.27;;
12956;SDS011;6543;48.836;10.092;2023-04-25T12:14:23;2.67;;;2.47;;
12956;SDS011;6543;48.836;10.092;2023-04-25T12:16:55;3.30;;;2.50;;
12956;SDS011;6543;48.836;10.092;2023-04-25T12:19:23;2.50;;;2.30;;
12956;SDS011;6543;48.836;10.092;2023-04-25T12:21:51;3.40;;;3.10;;
12956;SDS011;6543;48.836;10.092;2023-04-25T12:24:21;8.27;;;3.63;;
12956;SDS011;6543;48.836;10.092;2023-04-25T12:26:52;4.43;;;3.27;;
12956;SDS011;6543;48.836;10.092;2023-04-25T12:29:21;7.97;;;4.80;;
12956;SDS011;6543;48.836;10.092;2023-04-25T12:31:49;8.87;;;5.17;;
12956;SDS011;6543;48.836;10.092;2023-04-25T12:34:18;6.10;;;4.57;;
12956;SDS011;6543;48.836;10.092;2023-04-25T12:36:46;4.73;;;4.30;;
12956;SDS011;6543;48.836;10.092;2023-04-25T12:39:18;5.77;;;4.53;;
12956;SDS011;6543;48.836;10.092;2023-04-25T12:41:47;4.40;;;3.93;;
12956;SDS011;6543;48.836;10.092;2023-04-25T12:44:17;5.97;;;3.83;;
12956;SDS011;6543;48.836;10.092;2023-04-25T12:46:44;4.57;;;3.67;;
12956;SDS011;6543;48.836;10.092;2023-04-25T12:49:11;4.13;;;3.77;;
12956;SDS011;6543;48.836;10.092;2023-04-25T12:51:38;5.13;;;3.90;;
12956;SDS011;6543;48.836;10.092;2023-04-25T12:54:06;3.60;;;3.30;;
12956;SDS011;6543;48.836;10.092;2023-04-25T12:56:34;3.57;;;3.20;;
12956;SDS011;6543;48.836;10.092;2023-04-25T12:59:01;4.50;;;3.67;;
12956;SDS011;6543;48.836;10.092;2023-04-25T13:01:30;4.43;;;3.50;;
12956;SDS011;6543;48.836;10.092;2023-04-25T13:03:58;3.47;;;2.90;;
12956;SDS011;6543;48.836;10.092;2023-04-25T13:06:25;3.23;;;2.93;;
12956;SDS011;6543;48.836;10.092;2023-04-25T13:08:52;5.03;;;3.20;;
12956;SDS011;6543;48.836;10.092;2023-04-25T13:11:19;3.83;;;2.40;;
12956;SDS011;6543;48.836;10.092;2023-04-25T13:13:46;3.83;;;2.50;;
12956;SDS011;6543;48.836;10.092;2023-04-25T13:16:13;2.87;;;2.07;;
12956;SDS011;6543;48.836;10.092;2023-04-25T13:21:30;2.43;;;2.23;;
12956;SDS011;6543;48.836;10.092;2023-04-25T13:23:58;2.67;;;2.47;;
12956;SDS011;6543;48.836;10.092;2023-04-25T13:26:25;3.60;;;2.30;;
12956;SDS011;6543;48.836;10.092;2023-04-25T13:28:52;3.10;;;2.63;;
12956;SDS011;6543;48.836;10.092;2023-04-25T13:31:19;4.20;;;2.70;;
12956;SDS011;6543;48.836;10.092;2023-04-25T13:34:00;1.70;;;1.57;;
12956;SDS011;6543;48.836;10.092;2023-04-25T13:36:48;2.40;;;2.17;;
12956;SDS011;6543;48.836;10.092;2023-04-25T13:39:15;2.70;;;2.23;;
12956;SDS011;6543;48.836;10.092;2023-04-25T13:41:46;2.87;;;2.67;;
12956;SDS011;6543;48.836;10.092;2023-04-25T13:44:32;4.83;;;3.40;;
12956;SDS011;6543;48.836;10.092;2023-04-25T13:47:08;3.33;;;2.67;;
12956;SDS011;6543;48.836;10.092;2023-04-25T13:49:51;7.23;;;3.40;;
12956;SDS011;6543;48.836;10.092;2023-04-25T13:52:38;3.83;;;3.40;;
12956;SDS011;6543;48.836;10.092;2023-04-25T13:55:10;5.23;;;3.30;;
12956;SDS011;6543;48.836;10.092;2023-04-25T13:57:37;3.53;;;3.23;;
12956;SDS011;6543;48.836;10.092;2023-04-25T14:00:06;4.23;;;3.80;;
12956;SDS011;6543;48.836;10.092;2023-04-25T14:02:57;3.77;;;3.47;;
12956;SDS011;6543;48.836;10.092;2023-04-25T14:05:44;3.10;;;2.80;;
12956;SDS011;6543;48.836;10.092;2023-04-25T14:08:37;4.27;;;3.73;;
12956;SDS011;6543;48.836;10.092;2023-04-25T14:11:08;4.13;;;3.50;;
12956;SDS011;6543;48.836;10.092;2023-04-25T14:13:36;5.20;;;3.77;;
12956;SDS011;6543;48.836;10.092;2023-04-25T14:16:07;5.40;;;4.00;;
12956;SDS011;6543;48.836;10.092;2023-04-25T14:18:38;2.40;;;1.13;;
12956;SDS011;6543;48.836;10.092;2023-04-25T14:21:07;1.27;;;1.17;;
12956;SDS011;6543;48.836;10.092;2023-04-25T14:26:24;1.17;;;1.10;;
12956;SDS011;6543;48.836;10.092;2023-04-25T14:28:52;4.60;;;1.40;;
12956;SDS011;6543;48.836;10.092;2023-04-25T14:31:19;2.40;;;1.77;;
12956;SDS011;6543;48.836;10.092;2023-04-25T14:33:46;1.47;;;1.30;;
12956;SDS011;6543;48.836;10.092;2023-04-25T14:36:13;2.37;;;1.60;;
12956;SDS011;6543;48.836;10.092;2023-04-25T14:38:43;3.23;;;1.83;;
12956;SDS011;6543;48.836;10.092;2023-04-25T14:41:12;1.83;;;1.67;;
12956;SDS011;6543;48.836;10.092;2023-04-25T14:43:44;3.00;;;2.03;;
12956;SDS011;6543;48.836;10.092;2023-04-25T14:46:11;6.57;;;1.93;;
12956;SDS011;6543;48.836;10.092;2023-04-25T14:48:38;2.30;;;2.10;;
12956;SDS011;6543;48.836;10.092;2023-04-25T14:51:06;2.67;;;1.80;;
12956;SDS011;6543;48.836;10.092;2023-04-25T14:53:32;1.73;;;1.43;;
12956;SDS011;6543;48.836;10.092;2023-04-25T14:55:59;2.57;;;1.73;;
12956;SDS011;6543;48.836;10.092;2023-04-25T14:58:30;1.80;;;1.70;;
12956;SDS011;6543;48.836;10.092;2023-04-25T15:00:57;2.57;;;1.90;;
12956;SDS011;6543;48.836;10.092;2023-04-25T15:03:25;2.80;;;2.47;;
12956;SDS011;6543;48.836;10.092;2023-04-25T15:05:52;2.60;;;1.90;;
12956;SDS011;6543;48.836;10.092;2023-04-25T15:08:21;1.90;;;1.80;;
12956;SDS011;6543;48.836;10.092;2023-04-25T15:10:48;3.17;;;2.40;;
12956;SDS011;6543;48.836;10.092;2023-04-25T15:13:17;3.17;;;2.40;;
12956;SDS011;6543;48.836;10.092;2023-04-25T15:15:47;2.90;;;2.27;;
12956;SDS011;6543;48.836;10.092;2023-04-25T15:18:16;4.63;;;2.67;;
12956;SDS011;6543;48.836;10.092;2023-04-25T15:20:43;2.90;;;2.70;;
12956;SDS011;6543;48.836;10.092;2023-04-25T15:23:11;6.63;;;2.53;;
12956;SDS011;6543;48.836;10.092;2023-04-25T15:25:43;3.07;;;2.70;;
12956;SDS011;6543;48.836;10.092;2023-04-25T15:28:10;2.40;;;2.20;;
12956;SDS011;6543;48.836;10.092;2023-04-25T15:30:40;3.53;;;2.17;;
12956;SDS011;6543;48.836;10.092;2023-04-25T15:33:10;2.83;;;2.53;;
12956;SDS011;6543;48.836;10.092;2023-04-25T15:35:38;2.67;;;2.47;;
12956;SDS011;6543;48.836;10.092;2023-04-25T15:38:05;5.07;;;2.90;;
12956;SDS011;6543;48.836;10.092;2023-04-25T15:40:32;5.00;;;2.60;;